Time;durP1;ratioP1;P1;durP2;ratioP2;P2;SDS_P1;SDS_P2;PMS_P1;PMS_P2;Temp;Humidity;BMP_temperature;BMP_pressure;BME280_temperature;BME280_humidity;BME280_pressure;Samples;Min_cycle;Max_cycle;Signal;HPM_P1;HPM_P2
2023/06/20 00:00:14;;;;;;;25.35;23.45;;;;;;;23.73;53.87;100086.53;5031370;28;97178;-80
2023/06/20 00:02:41;;;;;;;26.13;24.02;;;;;;;23.63;53.79;100076.78;4995622;28;98742;-81
2023/06/20 00:05:07;;;;;;;25.75;23.65;;;;;;;23.61;53.92;100084.09;5020888;28;98679;-81
2023/06/20 00:07:33;;;;;;;27.52;25.23;;;;;;;23.49;54.32;100078.06;5027327;28;97159;-80
2023/06/20 00:09:58;;;;;;;25.98;23.88;;;;;;;23.29;54.90;100082.56;5024850;28;96833;-81
2023/06/20 00:12:24;;;;;;;25.75;23.50;;;;;;;23.31;54.53;100082.44;5027778;28;99067;-81
2023/06/20 00:14:50;;;;;;;26.23;24.05;;;;;;;23.36;54.63;100082.81;5025400;28;98492;-80
2023/06/20 00:17:15;;;;;;;25.45;23.35;;;;;;;23.34;54.59;100080.31;5008836;28;97880;-81
2023/06/20 00:19:41;;;;;;;26.45;24.38;;;;;;;23.30;54.47;100073.56;5030796;28;96964;-81
2023/06/20 00:22:06;;;;;;;26.10;23.98;;;;;;;23.21;54.82;100071.69;5028569;28;98732;-80
2023/06/20 00:24:35;;;;;;;26.85;24.45;;;;;;;23.10;54.65;100059.31;5030067;28;98252;-80
2023/06/20 00:27:01;;;;;;;26.10;24.10;;;;;;;23.18;54.82;100071.97;5030940;28;96741;-81
2023/06/20 00:29:26;;;;;;;27.35;25.08;;;;;;;23.15;54.76;100061.53;5020737;28;96843;-81
2023/06/20 00:31:52;;;;;;;25.77;23.33;;;;;;;23.04;54.88;100049.16;5028298;28;98851;-81
2023/06/20 00:34:22;;;;;;;26.02;23.73;;;;;;;22.85;55.59;100060.63;5011654;28;100485;-80
2023/06/20 00:36:47;;;;;;;27.15;24.95;;;;;;;22.89;55.36;100053.16;5022092;28;96774;-80
2023/06/20 00:39:13;;;;;;;26.55;24.27;;;;;;;22.95;55.31;100055.31;5029701;28;97145;-81
2023/06/20 00:41:41;;;;;;;25.85;23.95;;;;;;;22.91;55.40;100061.91;5023116;28;98686;-80
2023/06/20 00:44:07;;;;;;;25.60;23.60;;;;;;;22.83;55.54;100047.41;5017056;28;97217;-81
2023/06/20 00:46:35;;;;;;;26.83;24.52;;;;;;;22.76;55.65;100048.06;5030536;28;96742;-81
2023/06/20 00:49:03;;;;;;;28.20;25.90;;;;;;;22.60;56.33;100040.53;5009182;28;96894;-81
2023/06/20 00:51:29;;;;;;;27.17;24.70;;;;;;;22.68;56.08;100055.94;5034043;28;98960;-81
2023/06/20 00:53:56;;;;;;;27.10;24.58;;;;;;;22.67;56.04;100055.09;5013311;28;98813;-81
2023/06/20 00:56:24;;;;;;;26.77;24.20;;;;;;;22.65;56.22;100062.38;5033817;28;97085;-80
2023/06/20 00:58:49;;;;;;;27.85;25.38;;;;;;;22.62;56.39;100059.16;5033659;28;97495;-80
2023/06/20 01:01:18;;;;;;;26.73;24.58;;;;;;;22.59;56.34;100053.06;5027294;28;98680;-80
2023/06/20 01:03:46;;;;;;;26.08;24.08;;;;;;;22.53;56.55;100061.66;5015260;28;98777;-80
2023/06/20 01:06:20;;;;;;;27.65;25.45;;;;;;;22.58;56.29;100061.25;4998232;28;97136;-80
2023/06/20 01:09:16;;;;;;;26.60;24.50;;;;;;;22.54;56.45;100051.78;4994705;28;97324;-80
2023/06/20 01:11:59;;;;;;;26.17;23.70;;;;;;;22.59;56.26;100050.41;5002772;28;100861;-80
2023/06/20 01:14:25;;;;;;;26.70;24.60;;;;;;;22.60;56.09;100051.25;5004432;28;99135;-80
2023/06/20 01:17:00;;;;;;;28.27;25.52;;;;;;;22.56;56.58;100052.50;5003595;28;96753;-80
2023/06/20 01:19:53;;;;;;;26.58;24.48;;;;;;;22.54;56.44;100050.00;5029734;28;96836;-80
2023/06/20 01:22:56;;;;;;;26.20;23.95;;;;;;;22.56;56.21;100060.53;4996171;28;99485;-80
2023/06/20 01:25:27;;;;;;;27.30;24.83;;;;;;;22.52;56.35;100051.09;4984804;28;98777;-81
2023/06/20 01:28:05;;;;;;;28.75;26.05;;;;;;;22.48;56.49;100052.34;4995813;28;97024;-80
2023/06/20 01:30:39;;;;;;;25.65;23.45;;;;;;;22.47;56.52;100059.50;5000177;28;96910;-80
2023/06/20 01:33:08;;;;;;;27.58;25.00;;;;;;;22.52;56.30;100059.97;5023271;28;98961;-80
2023/06/20 01:35:34;;;;;;;27.75;25.42;;;;;;;22.53;56.53;100060.81;4988539;28;98564;-80
2023/06/20 01:38:04;;;;;;;27.17;24.50;;;;;;;22.53;56.43;100055.47;5014658;28;97138;-80
2023/06/20 01:40:30;;;;;;;26.85;24.77;;;;;;;22.42;56.66;100042.19;5007671;28;97358;-80
2023/06/20 01:42:58;;;;;;;27.08;25.10;;;;;;;22.36;56.62;100041.72;5014452;28;98628;-80
2023/06/20 01:45:26;;;;;;;27.58;24.77;;;;;;;22.27;57.02;100047.88;5009080;28;98752;-80
2023/06/20 01:47:53;;;;;;;28.42;26.02;;;;;;;22.17;57.04;100041.66;5014157;28;97116;-81
2023/06/20 01:50:19;;;;;;;26.73;24.45;;;;;;;22.25;56.91;100044.53;5011894;28;96824;-80
2023/06/20 01:52:44;;;;;;;26.58;24.08;;;;;;;22.28;56.85;100040.72;4988840;28;101518;-80
2023/06/20 01:55:11;;;;;;;27.77;25.25;;;;;;;22.25;56.98;100049.88;4995936;28;100329;-81
2023/06/20 01:57:37;;;;;;;27.90;25.45;;;;;;;22.25;56.88;100049.00;5011733;28;97414;-80
2023/06/20 02:00:11;;;;;;;28.45;26.00;;;;;;;22.17;57.00;100047.00;4988746;28;96833;-80
2023/06/20 02:02:43;;;;;;;28.35;25.98;;;;;;;22.15;56.92;100040.91;4984160;28;100477;-81
2023/06/20 02:05:10;;;;;;;30.38;26.02;;;;;;;22.17;57.12;100044.34;5004337;28;98353;-80
2023/06/20 02:07:37;;;;;;;29.60;26.80;;;;;;;22.13;57.32;100041.03;4992325;28;97218;-81
2023/06/20 02:10:03;;;;;;;29.13;26.40;;;;;;;22.10;57.36;100048.47;5007657;28;96921;-80
2023/06/20 02:12:30;;;;;;;27.55;25.33;;;;;;;22.10;57.13;100043.13;5013694;28;98824;-81
2023/06/20 02:14:57;;;;;;;29.27;26.58;;;;;;;22.10;57.28;100045.81;5024001;28;98418;-80
2023/06/20 02:17:28;;;;;;;28.38;25.98;;;;;;;22.01;57.49;100050.13;4980244;28;97305;-80
2023/06/20 02:19:54;;;;;;;27.95;25.67;;;;;;;22.04;57.62;100047.19;4997333;28;97033;-80
2023/06/20 02:22:20;;;;;;;28.15;25.85;;;;;;;22.05;57.48;100045.34;4983422;28;100619;-80
2023/06/20 02:24:47;;;;;;;29.67;26.95;;;;;;;22.07;57.40;100041.56;5006389;28;98785;-81
2023/06/20 02:27:15;;;;;;;28.33;25.98;;;;;;;22.10;56.95;100043.13;5010933;28;97174;-80
2023/06/20 02:29:41;;;;;;;28.25;25.88;;;;;;;21.94;57.10;100016.91;5029166;28;96926;-80
2023/06/20 02:32:08;;;;;;;29.90;27.10;;;;;;;22.07;57.29;100043.41;5009191;28;99150;-80
2023/06/20 02:34:37;;;;;;;29.92;25.88;;;;;;;22.09;57.37;100049.47;4975193;28;100247;-81
2023/06/20 02:37:04;;;;;;;27.67;25.38;;;;;;;22.07;57.16;100048.75;4998831;28;97287;-83
2023/06/20 02:39:30;;;;;;;28.98;26.67;;;;;;;22.07;57.26;100049.59;4993471;28;100129;-82
2023/06/20 02:41:57;;;;;;;29.20;26.60;;;;;;;22.09;57.43;100058.31;5017035;28;98783;-83
2023/06/20 02:44:23;;;;;;;29.35;26.80;;;;;;;22.07;57.20;100056.75;5000036;28;100520;-83
2023/06/20 02:47:02;;;;;;;30.10;27.42;;;;;;;22.11;57.17;100058.22;5023718;28;96775;-83
2023/06/20 02:49:39;;;;;;;29.45;27.13;;;;;;;22.02;57.67;100061.66;5007213;28;97049;-83
2023/06/20 02:52:36;;;;;;;29.83;27.13;;;;;;;21.90;58.18;100052.84;4991072;28;100537;-83
2023/06/20 02:55:08;;;;;;;30.27;27.58;;;;;;;21.84;58.46;100054.22;4975690;28;100703;-83
2023/06/20 02:57:35;;;;;;;29.98;27.35;;;;;;;21.87;58.12;100061.13;4992877;28;97104;-83
2023/06/20 03:00:09;;;;;;;29.67;27.27;;;;;;;21.78;58.36;100052.09;5030356;28;97343;-83
2023/06/20 03:02:41;;;;;;;29.20;27.05;;;;;;;21.88;58.16;100058.34;4994916;28;100720;-83
2023/06/20 03:05:09;;;;;;;28.25;25.73;;;;;;;21.98;57.90;100070.91;5032184;28;98573;-82
2023/06/20 03:07:35;;;;;;;29.23;26.98;;;;;;;21.98;57.96;100065.56;4980165;28;97769;-83
2023/06/20 03:10:06;;;;;;;30.80;28.10;;;;;;;22.01;57.71;100057.28;4980288;28;96948;-83
2023/06/20 03:12:31;;;;;;;29.52;26.75;;;;;;;22.03;57.69;100056.19;4982553;28;100839;-83
2023/06/20 03:14:57;;;;;;;30.27;27.35;;;;;;;22.10;57.55;100062.69;4998172;28;100333;-83
2023/06/20 03:17:23;;;;;;;29.70;27.13;;;;;;;22.03;58.00;100050.00;5015656;28;97092;-83
2023/06/20 03:19:49;;;;;;;30.23;27.20;;;;;;;21.98;58.25;100057.56;5017619;28;97559;-80
2023/06/20 03:22:17;;;;;;;31.80;28.85;;;;;;;21.98;58.03;100053.06;5006093;28;100868;-81
2023/06/20 03:24:46;;;;;;;30.02;27.52;;;;;;;22.06;58.02;100058.59;5005606;28;99984;-81
2023/06/20 03:27:12;;;;;;;29.83;27.40;;;;;;;22.04;58.09;100059.69;5008492;28;96769;-80
2023/06/20 03:29:38;;;;;;;31.00;28.27;;;;;;;22.14;57.78;100063.28;5026379;27;97379;-80
2023/06/20 03:32:04;;;;;;;28.73;25.83;;;;;;;22.12;57.61;100059.88;5023139;28;98680;-81
2023/06/20 03:34:30;;;;;;;31.25;28.38;;;;;;;22.15;57.66;100063.13;5005160;28;100707;-80
2023/06/20 03:36:56;;;;;;;29.40;26.88;;;;;;;22.14;57.90;100069.47;5006500;28;96978;-81
2023/06/20 03:39:22;;;;;;;29.60;27.10;;;;;;;22.11;57.97;100072.41;4994193;28;96887;-81
2023/06/20 03:41:48;;;;;;;29.95;27.50;;;;;;;22.13;57.74;100074.94;5015339;28;98710;-81
2023/06/20 03:44:14;;;;;;;30.02;27.27;;;;;;;22.23;57.55;100080.38;4995124;28;100601;-80
2023/06/20 03:46:40;;;;;;;31.30;28.20;;;;;;;22.12;57.95;100087.47;5000796;28;97132;-81
2023/06/20 03:49:06;;;;;;;28.98;26.67;;;;;;;22.31;57.45;100080.53;5010620;28;96786;-81
2023/06/20 03:51:31;;;;;;;29.75;27.23;;;;;;;22.48;57.10;100084.44;4998008;28;98880;-81
2023/06/20 03:53:57;;;;;;;31.25;28.17;;;;;;;22.60;56.76;100086.88;4999045;28;100115;-81
2023/06/20 03:56:22;;;;;;;29.55;27.02;;;;;;;22.69;56.49;100093.25;4997798;28;97332;-81
2023/06/20 03:58:48;;;;;;;29.15;26.58;;;;;;;22.77;56.23;100080.03;5020200;28;97511;-81
2023/06/20 04:01:13;;;;;;;30.27;27.98;;;;;;;22.83;56.08;100075.94;4997051;28;100318;-81
2023/06/20 04:03:39;;;;;;;31.35;28.52;;;;;;;22.95;55.86;100095.44;5022144;28;100357;-81
2023/06/20 04:06:06;;;;;;;30.13;27.55;;;;;;;22.97;55.74;100085.47;5004250;28;96708;-81
2023/06/20 04:08:32;;;;;;;31.02;28.45;;;;;;;22.90;55.72;100069.09;5022310;28;96791;-81
2023/06/20 04:10:58;;;;;;;31.15;28.13;;;;;;;23.15;55.40;100082.97;5024783;28;98661;-81
2023/06/20 04:13:23;;;;;;;35.65;29.17;;;;;;;23.17;55.38;100095.22;4992894;28;100283;-81
2023/06/20 04:15:49;;;;;;;30.83;27.98;;;;;;;23.20;55.16;100072.69;5013994;28;96775;-81
2023/06/20 04:18:14;;;;;;;31.83;29.10;;;;;;;23.40;54.94;100084.25;5013226;28;97097;-81
2023/06/20 04:20:41;;;;;;;34.00;30.95;;;;;;;23.33;55.00;100081.31;5018755;28;98814;-81
2023/06/20 04:23:07;;;;;;;32.00;29.42;;;;;;;23.19;55.43;100081.72;4988136;28;99593;-81
2023/06/20 04:25:34;;;;;;;30.42;27.80;;;;;;;23.26;55.20;100085.50;5028214;28;96753;-81
2023/06/20 04:27:59;;;;;;;30.73;28.25;;;;;;;23.54;54.57;100085.69;5027702;27;97259;-81
2023/06/20 04:30:31;;;;;;;30.70;28.10;;;;;;;23.55;54.65;100082.00;5010806;28;100346;-81
2023/06/20 04:32:58;;;;;;;31.88;28.98;;;;;;;23.64;54.35;100073.94;5013840;28;100207;-81
2023/06/20 04:35:24;;;;;;;30.60;27.98;;;;;;;23.59;54.37;100075.34;5014172;28;96727;-81
2023/06/20 04:37:51;;;;;;;31.77;28.60;;;;;;;23.78;54.23;100072.69;5003061;28;96911;-81
2023/06/20 04:40:18;;;;;;;32.70;29.67;;;;;;;24.03;53.60;100065.91;4997020;28;100863;-81
2023/06/20 04:42:47;;;;;;;31.73;28.63;;;;;;;24.14;53.25;100070.22;4997899;28;100205;-81
2023/06/20 04:45:12;;;;;;;30.80;27.90;;;;;;;24.26;53.00;100058.34;5019519;28;96751;-81
2023/06/20 04:47:39;;;;;;;30.52;27.75;;;;;;;24.55;52.38;100068.13;4999168;28;97206;-81
2023/06/20 04:50:05;;;;;;;29.40;26.80;;;;;;;24.72;52.36;100071.84;5022136;28;98720;-81
2023/06/20 04:52:31;;;;;;;31.13;27.30;;;;;;;24.91;51.63;100074.44;5000828;28;100393;-81
2023/06/20 04:55:01;;;;;;;30.58;28.15;;;;;;;24.91;51.71;100068.25;5008425;28;96822;-81
2023/06/20 04:57:31;;;;;;;30.05;27.23;;;;;;;24.87;51.82;100066.84;4975959;28;96952;-81
2023/06/20 04:59:56;;;;;;;28.75;26.45;;;;;;;25.16;51.22;100066.66;5028338;28;99006;-80
2023/06/20 05:02:23;;;;;;;27.20;25.25;;;;;;;25.35;50.98;100074.59;5022699;28;99792;-81
2023/06/20 05:04:48;;;;;;;31.58;28.27;;;;;;;25.32;50.94;100074.91;5030532;28;96785;-81
2023/06/20 05:07:14;;;;;;;30.65;28.13;;;;;;;25.33;50.53;100070.38;5018484;28;97134;-81
2023/06/20 05:09:39;;;;;;;32.13;27.20;;;;;;;25.29;50.53;100077.91;5025166;28;100138;-81
2023/06/20 05:12:05;;;;;;;30.20;27.25;;;;;;;25.18;50.78;100072.75;5016035;28;98807;-82
2023/06/20 05:14:31;;;;;;;29.85;27.13;;;;;;;25.40;50.44;100068.78;5025203;28;98628;-81
2023/06/20 05:16:56;;;;;;;29.40;26.73;;;;;;;25.67;50.22;100068.66;5016159;28;97167;-81
2023/06/20 05:19:22;;;;;;;28.88;26.45;;;;;;;25.64;50.13;100055.53;5026692;28;99156;-80
2023/06/20 05:21:47;;;;;;;30.23;27.23;;;;;;;25.71;49.90;100059.31;5014250;28;98680;-80
2023/06/20 05:24:14;;;;;;;32.05;28.90;;;;;;;25.58;50.11;100063.38;5028960;28;96804;-80
2023/06/20 05:26:39;;;;;;;29.70;27.25;;;;;;;25.63;50.28;100061.91;5025369;28;97265;-80
2023/06/20 05:29:05;;;;;;;29.65;26.85;;;;;;;25.60;50.34;100072.97;5028914;28;99101;-80
2023/06/20 05:31:31;;;;;;;29.23;26.70;;;;;;;25.79;50.06;100071.09;5030368;28;98604;-80
2023/06/20 05:33:56;;;;;;;28.80;26.52;;;;;;;25.87;49.32;100081.94;5024063;28;96786;-81
2023/06/20 05:36:22;;;;;;;28.98;26.25;;;;;;;25.88;49.44;100087.16;5013137;28;96828;-81
2023/06/20 05:38:50;;;;;;;29.25;26.65;;;;;;;26.20;48.95;100097.28;5013308;28;98636;-81
2023/06/20 05:41:16;;;;;;;29.70;26.92;;;;;;;26.27;48.91;100096.66;4997143;28;98447;-81
2023/06/20 05:43:42;;;;;;;29.52;26.77;;;;;;;26.67;48.32;100096.06;5017012;28;96803;-81
2023/06/20 05:46:07;;;;;;;30.23;27.73;;;;;;;26.73;48.21;100098.09;5017454;28;96846;-79
2023/06/20 05:48:34;;;;;;;30.17;27.10;;;;;;;26.98;47.32;100109.81;5020175;28;99207;-79
2023/06/20 05:51:00;;;;;;;28.67;26.17;;;;;;;27.51;46.57;100097.81;5012900;28;99853;-80
2023/06/20 05:53:27;;;;;;;27.95;25.60;;;;;;;28.18;45.46;100105.75;5007169;28;96874;-80
2023/06/20 05:55:52;;;;;;;31.02;28.35;;;;;;;28.85;44.12;100107.25;5014850;28;98697;-79
2023/06/20 05:58:18;;;;;;;27.13;24.83;;;;;;;29.15;43.42;100110.16;5017155;28;98627;-79
2023/06/20 06:00:45;;;;;;;27.63;25.10;;;;;;;30.14;41.08;100111.97;5008406;28;98987;-79
2023/06/20 06:03:12;;;;;;;27.75;25.23;;;;;;;32.14;38.01;100111.63;5016338;28;96667;-79
2023/06/20 06:05:39;;;;;;;27.63;25.05;;;;;;;34.78;33.99;100109.72;5020956;28;97794;-80
2023/06/20 06:08:05;;;;;;;26.27;24.10;;;;;;;37.32;30.49;100104.59;4997427;28;98615;-79
2023/06/20 06:10:31;;;;;;;26.98;24.63;;;;;;;40.09;27.23;100110.47;5011768;28;98522;-80
2023/06/20 06:12:57;;;;;;;27.10;25.00;;;;;;;42.64;24.68;100110.31;5013806;28;96834;-80
2023/06/20 06:15:22;;;;;;;26.48;24.25;;;;;;;44.32;22.45;100113.59;5018447;28;98382;-80
2023/06/20 06:17:48;;;;;;;26.17;24.08;;;;;;;45.30;21.36;100110.13;5014486;28;98676;-80
2023/06/20 06:20:17;;;;;;;27.63;25.27;;;;;;;46.45;20.39;100106.88;5015624;28;98323;-79
2023/06/20 06:22:43;;;;;;;24.38;22.77;;;;;;;47.47;18.98;100113.81;5018123;28;96891;-79
2023/06/20 06:25:09;;;;;;;23.30;21.65;;;;;;;48.26;18.66;100115.78;5008216;28;96859;-79
2023/06/20 06:27:34;;;;;;;24.63;22.58;;;;;;;48.86;17.73;100118.47;5016481;28;98205;-79
2023/06/20 06:30:01;;;;;;;23.25;21.55;;;;;;;49.54;17.60;100108.22;5025264;28;97793;-79
2023/06/20 06:32:27;;;;;;;21.65;20.15;;;;;;;50.31;17.13;100111.00;5016999;28;97043;-79
2023/06/20 06:34:54;;;;;;;25.13;22.80;;;;;;;50.76;16.57;100108.81;4997448;28;96830;-79
2023/06/20 06:37:20;;;;;;;25.23;22.88;;;;;;;51.26;15.82;100101.94;4995858;28;98599;-78
2023/06/20 06:39:46;;;;;;;25.55;23.30;;;;;;;51.35;15.95;100103.63;4994490;28;98308;-79
2023/06/20 06:42:11;;;;;;;23.60;22.00;;;;;;;52.23;15.24;100105.03;5012872;28;98193;-79
2023/06/20 06:44:38;;;;;;;24.60;22.75;;;;;;;52.98;14.90;100109.19;4997624;28;97141;-79
2023/06/20 06:47:04;;;;;;;23.77;21.83;;;;;;;53.70;14.42;100118.31;5013242;28;97837;-78
2023/06/20 06:49:31;;;;;;;23.50;21.80;;;;;;;54.08;14.47;100118.03;5017214;28;98357;-79
2023/06/20 06:51:56;;;;;;;24.45;22.70;;;;;;;54.34;13.98;100112.09;5002646;28;96832;-79
2023/06/20 06:54:22;;;;;;;24.10;22.30;;;;;;;54.81;13.68;100110.75;5020955;28;96897;-79
2023/06/20 06:56:48;;;;;;;24.70;22.58;;;;;;;55.02;13.37;100113.44;5011885;28;98726;-79
2023/06/20 06:59:13;;;;;;;26.77;24.10;;;;;;;55.27;13.29;100114.97;5023779;28;98550;-79
2023/06/20 07:01:39;;;;;;;24.25;22.38;;;;;;;55.52;12.74;100115.66;5019854;27;96853;-78
2023/06/20 07:04:05;;;;;;;24.27;22.13;;;;;;;55.77;12.99;100109.91;5018407;28;97146;-78
2023/06/20 07:06:30;;;;;;;25.30;22.98;;;;;;;55.94;12.77;100103.13;5010624;28;98606;-79
2023/06/20 07:08:56;;;;;;;25.55;23.55;;;;;;;53.65;14.07;100104.47;5017834;28;98579;-78
2023/06/20 07:11:22;;;;;;;24.00;22.25;;;;;;;55.20;13.48;100108.31;5018975;28;97576;-78
2023/06/20 07:13:47;;;;;;;24.17;22.38;;;;;;;55.25;13.20;100108.03;5018324;28;96819;-80
2023/06/20 07:16:13;;;;;;;24.42;22.42;;;;;;;55.23;13.13;100101.97;5016915;28;98719;-80
2023/06/20 07:18:49;;;;;;;24.95;22.92;;;;;;;57.18;11.79;100100.78;4992965;28;98585;-80
2023/06/20 07:21:17;;;;;;;24.23;22.33;;;;;;;58.38;11.25;100092.03;5026157;28;97545;-79
2023/06/20 07:23:43;;;;;;;25.15;23.15;;;;;;;58.95;11.30;100092.00;5022958;28;96819;-79
2023/06/20 07:26:08;;;;;;;24.67;22.88;;;;;;;59.40;10.63;100088.09;5019747;28;97737;-79
2023/06/20 07:28:35;;;;;;;25.10;22.95;;;;;;;59.98;10.43;100081.75;5017635;28;98506;-79
2023/06/20 07:31:00;;;;;;;24.30;22.33;;;;;;;60.54;9.86;100068.38;5026051;28;98057;-79
2023/06/20 07:33:26;;;;;;;24.52;22.55;;;;;;;60.61;10.40;100073.28;5021360;28;97022;-81
2023/06/20 07:35:52;;;;;;;24.25;22.45;;;;;;;60.94;9.99;100077.06;5020885;28;99013;-81
2023/06/20 07:38:17;;;;;;;24.40;22.52;;;;;;;61.32;9.99;100062.19;5019721;28;98439;-80
2023/06/20 07:40:43;;;;;;;25.20;23.42;;;;;;;61.90;10.09;100067.94;5010070;28;96733;-80
2023/06/20 07:43:08;;;;;;;26.15;24.25;;;;;;;62.14;10.29;100074.78;5016699;28;96902;-82
2023/06/20 07:45:36;;;;;;;26.63;24.75;;;;;;;62.58;10.00;100062.94;5019207;28;99030;-80
2023/06/20 07:48:02;;;;;;;27.13;25.42;;;;;;;62.62;8.87;100060.84;5018211;28;98338;-81
2023/06/20 07:50:28;;;;;;;27.30;25.40;;;;;;;62.61;9.20;100061.25;5017503;28;96814;-80
2023/06/20 07:52:54;;;;;;;26.20;24.42;;;;;;;62.67;8.76;100057.59;5017634;28;97029;-79
2023/06/20 07:55:20;;;;;;;26.50;24.75;;;;;;;63.08;8.42;100050.50;5018049;28;98989;-79
2023/06/20 07:57:45;;;;;;;27.95;25.95;;;;;;;63.37;8.96;100053.97;5023520;28;97425;-79
2023/06/20 08:00:11;;;;;;;25.65;23.95;;;;;;;63.49;8.62;100047.75;5022181;28;97466;-80
2023/06/20 08:02:40;;;;;;;27.88;25.60;;;;;;;63.43;8.62;100043.75;5024628;28;98497;-81
2023/06/20 08:05:08;;;;;;;27.98;26.00;;;;;;;63.59;8.50;100043.22;5018265;28;98708;-79
2023/06/20 08:07:37;;;;;;;27.85;25.88;;;;;;;63.68;7.94;100043.53;4993898;28;97629;-80
2023/06/20 08:10:04;;;;;;;26.58;24.63;;;;;;;63.24;8.36;100045.09;5020143;28;97126;-80
2023/06/20 08:12:30;;;;;;;29.77;26.53;;;;;;;63.16;8.45;100052.06;5015818;28;97122;-80
2023/06/20 08:14:55;;;;;;;26.52;24.73;;;;;;;63.10;8.68;100042.34;5012929;28;98773;-80
2023/06/20 08:17:21;;;;;;;26.63;24.83;;;;;;;62.98;8.27;100032.25;5014954;28;98730;-80
2023/06/20 08:19:49;;;;;;;26.95;25.13;;;;;;;62.99;8.51;100045.28;5010640;28;97597;-80
2023/06/20 08:22:16;;;;;;;27.98;25.83;;;;;;;62.83;8.57;100034.38;5024293;28;96846;-80
2023/06/20 08:24:50;;;;;;;27.50;25.30;;;;;;;62.08;8.80;100034.63;5027493;28;97654;-80
2023/06/20 08:27:33;;;;;;;26.20;24.02;;;;;;;59.27;9.53;100036.66;5019796;28;97785;-80
2023/06/20 08:33:35;;;;;;;25.17;23.25;;;;;;;51.75;13.86;100057.81;5031096;28;96841;-80
2023/06/20 08:36:26;;;;;;;24.42;22.52;;;;;;;49.96;14.95;100052.25;5034018;28;99366;-79
2023/06/20 08:39:37;;;;;;;23.13;21.42;;;;;;;48.01;16.22;100059.50;5006061;28;98262;-79
2023/06/20 08:42:20;;;;;;;24.52;22.80;;;;;;;46.54;17.25;100062.66;5012476;28;96713;-79
2023/06/20 08:44:47;;;;;;;23.80;22.00;;;;;;;45.07;18.76;100067.34;4998300;28;97358;-71
2023/06/20 08:47:20;;;;;;;24.55;22.85;;;;;;;43.57;19.93;100070.00;5011078;28;98711;-83
2023/06/20 08:49:58;;;;;;;26.13;24.30;;;;;;;42.99;21.10;100067.41;5000790;28;98923;-83
2023/06/20 08:52:56;;;;;;;24.35;22.55;;;;;;;41.36;21.74;100068.06;4993025;28;96901;-82
2023/06/20 08:55:47;;;;;;;24.10;22.40;;;;;;;40.80;22.40;100069.41;5014867;28;96757;-84
2023/06/20 08:58:20;;;;;;;24.40;22.80;;;;;;;40.59;23.08;100071.06;4991373;28;98312;-82
2023/06/20 09:00:58;;;;;;;24.77;23.05;;;;;;;40.38;23.51;100073.56;5015849;28;98611;-83
2023/06/20 09:03:48;;;;;;;25.48;23.50;;;;;;;39.58;23.47;100083.00;5029839;28;97255;-85
2023/06/20 09:06:50;;;;;;;25.77;23.45;;;;;;;39.67;24.37;100083.41;5023415;28;97700;-82
2023/06/20 09:09:21;;;;;;;24.48;22.92;;;;;;;39.60;24.98;100073.44;5032643;27;97890;-83
2023/06/20 09:12:03;;;;;;;24.23;22.70;;;;;;;38.84;22.70;100072.84;5029950;28;98849;-83
2023/06/20 09:14:33;;;;;;;25.52;23.52;;;;;;;37.95;24.26;100084.03;4999504;28;97117;-82
2023/06/20 09:17:17;;;;;;;24.42;22.50;;;;;;;38.09;24.96;100087.38;5029307;28;97114;-82
2023/06/20 09:19:53;;;;;;;25.25;23.40;;;;;;;38.13;24.80;100085.81;5008686;28;99762;-82
2023/06/20 09:22:45;;;;;;;24.98;23.25;;;;;;;37.87;24.85;100078.88;5033404;28;97029;-82
2023/06/20 09:25:40;;;;;;;25.13;23.23;;;;;;;37.53;25.08;100077.78;5021587;28;98052;-83
2023/06/20 09:28:21;;;;;;;25.75;23.73;;;;;;;37.16;25.57;100075.97;5027119;28;97609;-82
2023/06/20 09:30:57;;;;;;;11.00;9.98;;;;;;;37.33;25.85;100072.59;4997575;28;99264;-82
2023/06/20 09:33:25;;;;;;;11.30;10.20;;;;;;;37.20;26.12;100078.25;4991470;28;100085;-81
2023/06/20 09:35:54;;;;;;;54.67;50.08;;;;;;;37.09;25.68;100078.00;5004198;28;96722;-82
2023/06/20 09:38:24;;;;;;;24.70;22.77;;;;;;;36.31;26.07;100075.97;4998183;28;97388;-82
2023/06/20 09:40:52;;;;;;;;;;;;;;;36.53;26.65;100067.31;4996762;28;98724;-81
2023/06/20 09:43:24;;;;;;;24.92;23.23;;;;;;;36.53;26.84;100072.78;4998739;28;98370;-81
2023/06/20 09:45:51;;;;;;;24.35;22.55;;;;;;;35.98;27.21;100074.34;5003352;28;96749;-81
2023/06/20 09:48:20;;;;;;;24.80;22.77;;;;;;;36.10;27.43;100076.38;4998002;28;96865;-81
2023/06/20 09:50:51;;;;;;;23.88;22.17;;;;;;;36.44;27.26;100074.97;4981818;28;97704;-81
2023/06/20 09:54:07;;;;;;;23.90;22.40;;;;;;;36.67;27.57;100071.56;4977403;28;97424;-81
2023/06/20 09:56:44;;;;;;;24.63;23.02;;;;;;;36.78;27.78;100059.84;4956192;28;97225;-82
2023/06/20 09:59:28;;;;;;;24.38;22.52;;;;;;;36.49;27.08;100064.19;5007315;28;97265;-81
2023/06/20 10:02:02;;;;;;;24.17;22.52;;;;;;;36.24;27.53;100065.09;4995179;28;99350;-80
2023/06/20 10:04:29;;;;;;;24.52;22.63;;;;;;;35.79;28.16;100069.94;5010261;28;97602;-80
2023/06/20 10:07:03;;;;;;;66.40;34.40;;;;;;;35.84;28.61;100061.91;4976054;28;97331;-80
2023/06/20 10:09:30;;;;;;;26.23;24.23;;;;;;;35.77;28.26;100053.75;4984325;28;97807;-80
2023/06/20 10:11:56;;;;;;;25.00;23.10;;;;;;;35.62;28.46;100066.91;5005698;28;99034;-81
2023/06/20 10:14:21;;;;;;;24.83;23.10;;;;;;;35.43;27.95;100057.78;4977767;28;98501;-81
2023/06/20 10:16:51;;;;;;;24.77;22.95;;;;;;;35.26;28.48;100064.84;4975887;28;97339;-81
2023/06/20 10:19:18;;;;;;;24.65;22.75;;;;;;;35.46;28.34;100065.53;4999111;28;96871;-81
2023/06/20 10:22:13;;;;;;;24.38;22.58;;;;;;;35.56;28.84;100067.81;5000596;28;98684;-80
2023/06/20 10:24:39;;;;;;;24.65;22.83;;;;;;;35.18;28.62;100060.50;4973022;28;98381;-80
2023/06/20 10:27:05;;;;;;;25.17;23.17;;;;;;;34.78;28.89;100041.59;5004650;28;98138;-78
2023/06/20 10:29:41;;;;;;;24.80;22.88;;;;;;;34.73;28.87;100054.19;5008160;28;97972;-80
2023/06/20 10:32:09;;;;;;;24.63;22.92;;;;;;;34.86;28.76;100052.25;5019929;28;98613;-82
2023/06/20 10:34:39;;;;;;;24.05;22.42;;;;;;;34.91;29.23;100057.06;5013831;28;98277;-78
2023/06/20 10:37:20;;;;;;;;;;;;;;;35.01;28.95;100065.59;5022004;28;97164;-80
2023/06/20 10:39:55;;;;;;;25.27;22.33;;;;;;;34.77;27.98;100066.34;5025522;28;96907;-78
2023/06/20 10:42:40;;;;;;;30.13;22.83;;;;;;;34.86;28.76;100067.78;5021694;28;99071;-78
2023/06/20 10:45:23;;;;;;;23.33;21.70;;;;;;;34.76;28.63;100046.41;5020706;28;98856;-79
2023/06/20 10:47:50;;;;;;;23.88;22.13;;;;;;;34.34;28.64;100047.81;5019842;28;96924;-80
2023/06/20 10:50:18;;;;;;;23.90;22.10;;;;;;;34.36;28.69;100059.34;5019089;28;96906;-83
2023/06/20 10:52:44;;;;;;;24.38;22.42;;;;;;;34.12;29.63;100047.22;5014321;28;97873;-79
2023/06/20 10:55:22;;;;;;;23.20;21.70;;;;;;;34.00;30.19;100045.13;5007208;28;99100;-79
2023/06/20 10:57:50;;;;;;;25.08;22.95;;;;;;;34.05;30.33;100036.38;5019600;28;96776;-79
2023/06/20 11:00:21;;;;;;;36.53;23.80;;;;;;;34.08;30.78;100044.09;5009080;28;97325;-80
2023/06/20 11:02:52;;;;;;;67.53;29.98;;;;;;;34.00;30.80;100045.13;5018474;28;99083;-79
2023/06/20 11:05:27;;;;;;;24.98;22.33;;;;;;;33.90;30.91;100043.91;5007435;28;97712;-80
2023/06/20 11:07:55;;;;;;;31.92;22.98;;;;;;;33.94;30.87;100037.81;5011175;28;97676;-81
2023/06/20 11:10:27;;;;;;;24.30;22.15;;;;;;;33.87;31.21;100039.72;5012593;28;96770;-79
2023/06/20 11:12:56;;;;;;;24.08;21.88;;;;;;;33.70;30.85;100041.19;5018899;28;98106;-79
2023/06/20 11:15:29;;;;;;;23.02;21.45;;;;;;;33.65;30.95;100047.25;5014504;28;98421;-81
2023/06/20 11:17:57;;;;;;;23.67;22.10;;;;;;;33.73;31.30;100041.59;5005143;28;98448;-82
2023/06/20 11:20:27;;;;;;;122.97;33.25;;;;;;;33.80;31.37;100049.75;5018309;28;97096;-81
2023/06/20 11:23:20;;;;;;;109.13;34.67;;;;;;;33.81;31.53;100033.22;5031712;28;97677;-82